Time;durP1;ratioP1;P1;durP2;ratioP2;P2;SDS_P1;SDS_P2;PMS_P1;PMS_P2;Temp;Humidity;BMP_temperature;BMP_pressure;BME280_temperature;BME280_humidity;BME280_pressure;Samples;Min_cycle;Max_cycle;Signal;HPM_P1;HPM_P2
2021/04/02 00:00:48;;;;;;;65.97;45.43;;;;;;;;;;10296120;28;20646;-63
2021/04/02 00:05:49;;;;;;;7.25;1.85;;;;;;;;;;10305248;28;20029;-64
2021/04/02 00:10:49;;;;;;;4.70;1.25;;;;;;;;;;10313812;28;20037;-63
2021/04/02 00:15:47;;;;;;;1.20;0.63;;;;;;;;;;10280754;28;20482;-64
2021/04/02 00:20:45;;;;;;;;;;;;;;;;;;10320312;28;20260;-63
2021/04/02 00:25:42;;;;;;;6.18;1.20;;;;;;;;;;10332259;28;19920;-62
2021/04/02 00:30:40;;;;;;;1.63;0.40;;;;;;;;;;10313558;28;20044;-62
2021/04/02 00:35:38;;;;;;;2.57;0.80;;;;;;;;;;10289075;28;20037;-63
2021/04/02 00:40:37;;;;;;;2.83;1.10;;;;;;;;;;10307113;28;20679;-62
2021/04/02 00:45:35;;;;;;;1.45;0.60;;;;;;;;;;10301560;28;20409;-62
2021/04/02 00:50:38;;;;;;;1.57;0.50;;;;;;;;;;10331088;28;20033;-66
2021/04/02 00:55:36;;;;;;;5.75;0.90;;;;;;;;;;10297307;28;20492;-64
2021/04/02 01:00:34;;;;;;;2.50;0.60;;;;;;;;;;10327437;28;20138;-63
2021/04/02 01:05:32;;;;;;;0.30;0.30;;;;;;;;;;10337689;28;20519;-62
2021/04/02 01:10:31;;;;;;;0.68;0.43;;;;;;;;;;10311123;28;20043;-63
2021/04/02 01:15:40;;;;;;;0.20;0.20;;;;;;;;;;10313763;28;20434;-64
2021/04/02 01:20:39;;;;;;;0.22;0.22;;;;;;;;;;10299559;28;20044;-63
2021/04/02 01:25:36;;;;;;;;;;;;;;;;;;10278326;28;20502;-63
2021/04/02 01:30:36;;;;;;;0.20;0.20;;;;;;;;;;10325568;28;20318;-62
2021/04/02 01:35:35;;;;;;;0.43;0.43;;;;;;;;;;10303870;28;20033;-64
2021/04/02 01:40:35;;;;;;;3.75;0.55;;;;;;;;;;10323511;28;20102;-64
2021/04/02 01:45:34;;;;;;;4.72;0.63;;;;;;;;;;10292361;28;20064;-64
2021/04/02 01:50:35;;;;;;;1.95;0.68;;;;;;;;;;10307960;28;20060;-65
2021/04/02 01:55:33;;;;;;;0.73;0.22;;;;;;;;;;10320707;28;20097;-64
2021/04/02 02:00:42;;;;;;;2.60;0.80;;;;;;;;;;10289963;28;20044;-62
2021/04/02 02:05:41;;;;;;;0.43;0.40;;;;;;;;;;10316033;28;20604;-65
2021/04/02 02:11:10;;;;;;;1.27;0.70;;;;;;;;;;10302796;28;20044;-64
2021/04/02 02:16:09;;;;;;;0.52;0.47;;;;;;;;;;10290198;28;20116;-63
2021/04/02 02:21:12;;;;;;;4.68;1.00;;;;;;;;;;10299467;28;20025;-62
2021/04/02 02:26:11;;;;;;;12.15;0.85;;;;;;;;;;10311976;28;20498;-62
2021/04/02 02:31:11;;;;;;;5.55;0.90;;;;;;;;;;10293995;28;20033;-62
2021/04/02 02:36:11;;;;;;;0.50;0.50;;;;;;;;;;10305431;28;20322;-63
2021/04/02 02:41:10;;;;;;;0.90;0.30;;;;;;;;;;10292247;28;20102;-62
2021/04/02 02:46:10;;;;;;;6.90;1.52;;;;;;;;;;10301777;28;20094;-62
2021/04/02 02:51:07;;;;;;;9.07;1.50;;;;;;;;;;10319795;28;20048;-61
2021/04/02 02:56:06;;;;;;;3.05;1.10;;;;;;;;;;10311437;28;20038;-63
2021/04/02 03:01:08;;;;;;;1.70;1.05;;;;;;;;;;10321647;28;20406;-62
2021/04/02 03:06:08;;;;;;;7.88;1.00;;;;;;;;;;10322618;28;21617;-62
2021/04/02 03:11:09;;;;;;;0.52;0.52;;;;;;;;;;10308476;28;20116;-61
2021/04/02 03:16:09;;;;;;;0.80;0.47;;;;;;;;;;10303989;28;20067;-62
2021/04/02 03:21:08;;;;;;;1.00;0.55;;;;;;;;;;10309780;28;20032;-62
2021/04/02 03:26:06;;;;;;;2.90;0.95;;;;;;;;;;10313683;28;20037;-61
2021/04/02 03:31:04;;;;;;;0.40;0.40;;;;;;;;;;10319095;28;20699;-64
2021/04/02 03:36:11;;;;;;;1.25;0.57;;;;;;;;;;10308627;28;20300;-62
2021/04/02 03:41:19;;;;;;;5.32;0.65;;;;;;;;;;10318490;28;20071;-64
2021/04/02 03:46:17;;;;;;;8.07;0.82;;;;;;;;;;10332013;28;20040;-64
2021/04/02 03:51:23;;;;;;;2.45;0.93;;;;;;;;;;10328007;28;20700;-62
2021/04/02 03:56:23;;;;;;;0.70;0.70;;;;;;;;;;10315746;28;20518;-63
2021/04/02 04:01:24;;;;;;;5.47;0.60;;;;;;;;;;10309575;28;20029;-60
2021/04/02 04:06:24;;;;;;;4.28;0.98;;;;;;;;;;10313707;28;20132;-63
2021/04/02 04:11:26;;;;;;;5.97;0.98;;;;;;;;;;10305207;28;20037;-64
2021/04/02 04:16:25;;;;;;;2.30;0.52;;;;;;;;;;10301582;28;20033;-62
2021/04/02 04:21:26;;;;;;;0.50;0.50;;;;;;;;;;10304029;28;20033;-63
2021/04/02 04:26:29;;;;;;;5.57;0.73;;;;;;;;;;10336496;28;20056;-65
2021/04/02 04:31:27;;;;;;;6.93;1.13;;;;;;;;;;10327125;28;20049;-64
2021/04/02 04:36:25;;;;;;;2.93;0.67;;;;;;;;;;10329908;28;20041;-63
2021/04/02 04:41:23;;;;;;;5.10;1.45;;;;;;;;;;10324348;28;20033;-64
2021/04/02 04:46:21;;;;;;;;;;;;;;;;;;10313214;28;20041;-63
2021/04/02 04:51:20;;;;;;;5.40;0.47;;;;;;;;;;10330892;28;19917;-66
2021/04/02 04:56:18;;;;;;;4.47;0.43;;;;;;;;;;10320519;28;20342;-62
2021/04/02 05:01:16;;;;;;;9.07;1.35;;;;;;;;;;10319605;28;20164;-64
2021/04/02 05:06:15;;;;;;;8.23;1.03;;;;;;;;;;10283889;28;20116;-62
2021/04/02 05:11:14;;;;;;;1.83;0.43;;;;;;;;;;10284921;28;20065;-63
2021/04/02 05:16:12;;;;;;;0.30;0.30;;;;;;;;;;10303097;28;20048;-62
2021/04/02 05:21:09;;;;;;;8.30;0.90;;;;;;;;;;10319313;28;20036;-59
2021/04/02 05:26:11;;;;;;;9.27;1.10;;;;;;;;;;10306260;28;20061;-66
2021/04/02 05:31:09;;;;;;;5.50;0.77;;;;;;;;;;10322941;28;20030;-61
2021/04/02 05:36:06;;;;;;;4.25;0.50;;;;;;;;;;10307482;28;20044;-60
2021/04/02 05:41:08;;;;;;;8.13;1.50;;;;;;;;;;10318301;28;20033;-61
2021/04/02 05:46:06;;;;;;;5.03;0.93;;;;;;;;;;10316727;28;20041;-64
2021/04/02 05:51:04;;;;;;;8.48;1.25;;;;;;;;;;10317838;28;20033;-62
2021/04/02 05:56:02;;;;;;;3.63;1.00;;;;;;;;;;10315481;28;20040;-62
2021/04/02 06:01:00;;;;;;;1.20;0.60;;;;;;;;;;10318871;28;20559;-63
2021/04/02 06:05:57;;;;;;;5.33;0.97;;;;;;;;;;10299469;28;20140;-61
2021/04/02 06:10:55;;;;;;;2.87;0.70;;;;;;;;;;10301210;28;20067;-63
2021/04/02 06:15:52;;;;;;;5.70;1.33;;;;;;;;;;10304681;28;20029;-63
2021/04/02 06:20:50;;;;;;;9.37;1.10;;;;;;;;;;10316471;28;20040;-65
2021/04/02 06:25:48;;;;;;;4.60;1.08;;;;;;;;;;10295474;28;20507;-60
2021/04/02 06:30:49;;;;;;;2.63;0.97;;;;;;;;;;10314490;28;20232;-67
2021/04/02 06:35:46;;;;;;;6.45;1.55;;;;;;;;;;10323138;28;20690;-64
2021/04/02 06:40:44;;;;;;;2.20;0.90;;;;;;;;;;10318953;28;20040;-68
2021/04/02 06:45:41;;;;;;;10.00;1.27;;;;;;;;;;10306417;28;20091;-62
2021/04/02 06:50:39;;;;;;;4.47;1.10;;;;;;;;;;10321904;28;21458;-65
2021/04/02 06:55:37;;;;;;;11.13;1.48;;;;;;;;;;10306461;28;20124;-63
2021/04/02 07:00:36;;;;;;;6.80;1.40;;;;;;;;;;10301156;28;20033;-62
2021/04/02 07:05:33;;;;;;;;;;;;;;;;;;10318037;28;20025;-59
2021/04/02 07:10:32;;;;;;;7.38;1.40;;;;;;;;;;10305587;28;19923;-62
2021/04/02 07:15:31;;;;;;;7.57;1.40;;;;;;;;;;10325886;28;20051;-63
2021/04/02 07:20:29;;;;;;;6.50;0.95;;;;;;;;;;10304778;28;20045;-61
2021/04/02 07:25:27;;;;;;;7.57;1.63;;;;;;;;;;10320614;28;20033;-60
2021/04/02 07:30:25;;;;;;;5.43;1.77;;;;;;;;;;10310224;28;20037;-62
2021/04/02 07:35:23;;;;;;;3.75;1.17;;;;;;;;;;10282117;28;20517;-61
2021/04/02 07:40:21;;;;;;;5.80;1.37;;;;;;;;;;10322840;28;20029;-61
2021/04/02 07:45:21;;;;;;;5.55;1.35;;;;;;;;;;10323378;28;20038;-61
2021/04/02 07:50:37;;;;;;;3.92;0.90;;;;;;;;;;10311776;28;20038;-61
2021/04/02 07:55:36;;;;;;;8.32;1.17;;;;;;;;;;10336399;28;20037;-62
2021/04/02 08:00:35;;;;;;;3.72;0.93;;;;;;;;;;10321250;28;20061;-62
2021/04/02 08:05:32;;;;;;;;;;;;;;;;;;10334687;28;20515;-64
2021/04/02 08:10:30;;;;;;;12.30;1.05;;;;;;;;;;10318245;28;19925;-61
2021/04/02 08:15:27;;;;;;;3.78;1.23;;;;;;;;;;10326556;28;20037;-62
2021/04/02 08:20:27;;;;;;;4.63;2.53;;;;;;;;;;10332470;28;20515;-64
2021/04/02 08:25:27;;;;;;;3.22;1.02;;;;;;;;;;10317377;28;20122;-62
2021/04/02 08:30:24;;;;;;;13.83;1.73;;;;;;;;;;10335222;28;20090;-60
2021/04/02 08:35:21;;;;;;;2.20;1.07;;;;;;;;;;10310443;28;20036;-63
2021/04/02 08:40:19;;;;;;;2.07;1.07;;;;;;;;;;10334706;28;20433;-59
2021/04/02 08:45:18;;;;;;;2.90;0.63;;;;;;;;;;10320972;28;20423;-63
2021/04/02 08:50:16;;;;;;;1.83;1.02;;;;;;;;;;10292283;28;20044;-63
2021/04/02 08:55:13;;;;;;;12.43;1.83;;;;;;;;;;10312589;28;20036;-63
2021/04/02 09:00:11;;;;;;;5.80;1.13;;;;;;;;;;10307298;28;20514;-62
2021/04/02 09:05:10;;;;;;;4.60;1.13;;;;;;;;;;10323348;28;20029;-60
2021/04/02 09:10:26;;;;;;;5.05;1.65;;;;;;;;;;10325144;28;20064;-65
2021/04/02 09:15:27;;;;;;;4.32;1.13;;;;;;;;;;10309341;28;20140;-63
2021/04/02 09:20:24;;;;;;;8.90;1.60;;;;;;;;;;10328943;28;20045;-62
2021/04/02 09:25:24;;;;;;;7.57;1.47;;;;;;;;;;10309413;28;20514;-63
2021/04/02 09:30:25;;;;;;;8.88;2.08;;;;;;;;;;10333134;28;20507;-62
2021/04/02 09:35:22;;;;;;;3.47;1.25;;;;;;;;;;10327390;28;20033;-65
2021/04/02 09:40:25;;;;;;;7.83;1.70;;;;;;;;;;10333662;28;20037;-66
2021/04/02 09:45:26;;;;;;;6.95;1.95;;;;;;;;;;10302909;28;20080;-59
2021/04/02 09:50:24;;;;;;;6.15;1.58;;;;;;;;;;10311388;28;20044;-61
2021/04/02 09:55:22;;;;;;;2.85;1.10;;;;;;;;;;10297863;28;20066;-60
2021/04/02 10:00:20;;;;;;;7.73;1.83;;;;;;;;;;10297556;28;20040;-62
2021/04/02 10:05:17;;;;;;;21.80;7.32;;;;;;;;;;10330278;28;20140;-61
2021/04/02 10:10:15;;;;;;;5.57;2.10;;;;;;;;;;10309473;28;20481;-63
2021/04/02 10:15:13;;;;;;;7.17;2.50;;;;;;;;;;10314480;28;20569;-62
2021/04/02 10:20:10;;;;;;;13.32;2.08;;;;;;;;;;10308703;28;20033;-62
2021/04/02 10:25:08;;;;;;;4.73;1.20;;;;;;;;;;10330068;28;20048;-65
2021/04/02 10:30:06;;;;;;;4.63;1.90;;;;;;;;;;10310037;28;20036;-64
2021/04/02 10:35:04;;;;;;;8.87;1.27;;;;;;;;;;10331500;28;20023;-62
2021/04/02 10:40:01;;;;;;;4.20;0.53;;;;;;;;;;10333273;28;20028;-61
2021/04/02 10:44:59;;;;;;;3.23;1.00;;;;;;;;;;10329426;28;20037;-65
2021/04/02 10:49:56;;;;;;;8.60;1.00;;;;;;;;;;10325872;28;20689;-60
2021/04/02 10:54:54;;;;;;;4.20;1.20;;;;;;;;;;10289838;28;20120;-64
2021/04/02 10:59:51;;;;;;;5.77;1.47;;;;;;;;;;10310119;28;20093;-62
2021/04/02 11:04:49;;;;;;;3.57;1.63;;;;;;;;;;10309346;28;20284;-64
2021/04/02 11:09:47;;;;;;;3.47;1.23;;;;;;;;;;10305389;28;20037;-60
2021/04/02 11:14:44;;;;;;;10.33;1.70;;;;;;;;;;10311802;28;20041;-63
2021/04/02 11:19:41;;;;;;;3.43;1.40;;;;;;;;;;10330455;28;20040;-62
2021/04/02 11:24:39;;;;;;;10.13;1.47;;;;;;;;;;10337809;28;20939;-60
2021/04/02 11:29:37;;;;;;;6.50;1.57;;;;;;;;;;10332528;28;20040;-61
2021/04/02 11:34:35;;;;;;;6.32;1.00;;;;;;;;;;10339020;28;20037;-62
2021/04/02 11:39:33;;;;;;;1.52;0.73;;;;;;;;;;10338226;28;20033;-62
2021/04/02 11:44:31;;;;;;;5.95;1.20;;;;;;;;;;10293692;28;20447;-62
2021/04/02 11:49:28;;;;;;;5.53;1.07;;;;;;;;;;10318126;28;20098;-59
2021/04/02 11:54:26;;;;;;;1.13;0.40;;;;;;;;;;10299616;22;20110;-64
2021/04/02 11:59:23;;;;;;;4.10;1.00;;;;;;;;;;10309089;28;20032;-63
2021/04/02 12:04:20;;;;;;;5.00;1.30;;;;;;;;;;10341796;28;20980;-65
2021/04/02 12:09:18;;;;;;;5.10;1.10;;;;;;;;;;10361639;28;20567;-64
2021/04/02 12:14:16;;;;;;;7.17;1.80;;;;;;;;;;10383442;28;20040;-65
2021/04/02 12:19:13;;;;;;;4.83;0.70;;;;;;;;;;10355565;28;20080;-64
2021/04/02 12:24:11;;;;;;;6.50;1.10;;;;;;;;;;10364106;28;20139;-65
2021/04/02 12:29:08;;;;;;;8.27;1.17;;;;;;;;;;10369044;28;20051;-65
2021/04/02 12:34:06;;;;;;;4.97;1.53;;;;;;;;;;10365476;28;20094;-65
2021/04/02 12:39:04;;;;;;;2.27;0.60;;;;;;;;;;10358228;28;20048;-65
2021/04/02 12:44:01;;;;;;;2.30;1.02;;;;;;;;;;10341424;28;20503;-65
2021/04/02 12:48:59;;;;;;;4.30;1.13;;;;;;;;;;10362320;28;20461;-66
2021/04/02 12:53:56;;;;;;;4.30;1.10;;;;;;;;;;10351799;28;20094;-65
2021/04/02 12:58:53;;;;;;;11.20;2.57;;;;;;;;;;10355917;28;20035;-65
2021/04/02 13:03:51;;;;;;;6.77;3.47;;;;;;;;;;10364343;28;20033;-67
2021/04/02 13:08:49;;;;;;;17.38;4.53;;;;;;;;;;10358874;28;20127;-66
2021/04/02 13:13:46;;;;;;;12.80;3.70;;;;;;;;;;10327884;28;20123;-65
2021/04/02 13:18:44;;;;;;;10.63;2.93;;;;;;;;;;10345986;28;20044;-67
2021/04/02 13:23:42;;;;;;;4.57;2.03;;;;;;;;;;10349979;28;20486;-65
2021/04/02 13:28:39;;;;;;;2.97;2.13;;;;;;;;;;10357830;28;20403;-65
2021/04/02 13:33:36;;;;;;;7.13;2.27;;;;;;;;;;10372263;28;20044;-66
2021/04/02 13:38:34;;;;;;;7.20;1.10;;;;;;;;;;10339875;28;20561;-65
2021/04/02 13:43:31;;;;;;;8.47;1.97;;;;;;;;;;10337024;28;20503;-65
2021/04/02 13:48:29;;;;;;;7.50;1.40;;;;;;;;;;10350077;28;20047;-66
2021/04/02 13:53:26;;;;;;;8.83;1.97;;;;;;;;;;10332550;28;20093;-65
2021/04/02 13:58:23;;;;;;;5.50;1.73;;;;;;;;;;10348134;28;20032;-66
2021/04/02 14:03:21;;;;;;;10.17;1.80;;;;;;;;;;10363758;28;20464;-66
2021/04/02 14:08:19;;;;;;;5.18;1.10;;;;;;;;;;10350406;28;20028;-65
2021/04/02 14:13:17;;;;;;;5.80;1.53;;;;;;;;;;10338101;28;20040;-65
2021/04/02 14:18:14;;;;;;;3.27;1.03;;;;;;;;;;10341815;28;20033;-66
2021/04/02 14:23:11;;;;;;;6.87;1.03;;;;;;;;;;10324969;28;20045;-66
2021/04/02 14:28:09;;;;;;;9.70;3.13;;;;;;;;;;10351413;28;20052;-66
2021/04/02 14:33:07;;;;;;;5.90;1.43;;;;;;;;;;10338422;28;20506;-66
2021/04/02 14:38:07;;;;;;;7.35;1.83;;;;;;;;;;10352260;28;20041;-66
2021/04/02 14:43:05;;;;;;;8.10;1.98;;;;;;;;;;10343754;28;20040;-66
2021/04/02 14:48:02;;;;;;;9.23;1.80;;;;;;;;;;10341113;28;20036;-66
2021/04/02 14:53:00;;;;;;;6.03;1.47;;;;;;;;;;10346510;28;20482;-66
2021/04/02 14:57:58;;;;;;;15.80;2.30;;;;;;;;;;10336585;28;20449;-67
2021/04/02 15:02:56;;;;;;;13.17;2.00;;;;;;;;;;10347931;28;20291;-65
2021/04/02 15:07:53;;;;;;;7.00;2.10;;;;;;;;;;10350592;28;20036;-65
2021/04/02 15:12:51;;;;;;;6.83;1.43;;;;;;;;;;10327808;28;21728;-66
2021/04/02 15:17:49;;;;;;;7.37;2.67;;;;;;;;;;10334116;28;20033;-66
2021/04/02 15:22:47;;;;;;;7.57;2.03;;;;;;;;;;10351623;28;20040;-67
2021/04/02 15:27:44;;;;;;;14.07;2.53;;;;;;;;;;10324194;28;21004;-66
2021/04/02 15:32:41;;;;;;;3.90;1.50;;;;;;;;;;10340296;28;20033;-66
2021/04/02 15:37:52;;;;;;;6.30;0.97;;;;;;;;;;10340043;28;20168;-67
2021/04/02 15:42:50;;;;;;;8.48;1.35;;;;;;;;;;10348454;28;20041;-66
2021/04/02 15:47:48;;;;;;;8.82;1.73;;;;;;;;;;10329682;28;20385;-66
2021/04/02 15:52:47;;;;;;;18.30;3.58;;;;;;;;;;10350401;28;20371;-66
2021/04/02 15:57:46;;;;;;;11.68;2.75;;;;;;;;;;10328529;28;20037;-66
2021/04/02 16:02:45;;;;;;;14.20;2.63;;;;;;;;;;10338940;28;20029;-66
2021/04/02 16:07:42;;;;;;;12.73;2.63;;;;;;;;;;10349837;28;20350;-67
2021/04/02 16:12:41;;;;;;;11.93;3.10;;;;;;;;;;10341087;28;20041;-66
2021/04/02 16:17:38;;;;;;;11.23;2.90;;;;;;;;;;10342261;28;20067;-65
2021/04/02 16:22:36;;;;;;;7.68;2.15;;;;;;;;;;10344069;28;20064;-66
2021/04/02 16:27:34;;;;;;;8.27;3.07;;;;;;;;;;10340779;28;20052;-66
2021/04/02 16:32:31;;;;;;;14.17;3.33;;;;;;;;;;10341359;28;20119;-67
2021/04/02 16:37:28;;;;;;;6.97;2.13;;;;;;;;;;10353170;28;20037;-65
2021/04/02 16:42:26;;;;;;;7.67;2.13;;;;;;;;;;10328310;28;20056;-65
2021/04/02 16:47:23;;;;;;;11.57;3.10;;;;;;;;;;10337574;28;20029;-66
2021/04/02 16:52:21;;;;;;;9.23;3.53;;;;;;;;;;10339156;28;20040;-66
2021/04/02 16:57:18;;;;;;;5.87;2.30;;;;;;;;;;10350247;28;20119;-65
2021/04/02 17:02:16;;;;;;;15.17;2.83;;;;;;;;;;10350457;28;20602;-65
2021/04/02 17:07:13;;;;;;;20.80;2.43;;;;;;;;;;10363156;28;20402;-65
2021/04/02 17:12:11;;;;;;;17.60;2.93;;;;;;;;;;10347474;28;20037;-65
2021/04/02 17:17:08;;;;;;;6.17;2.33;;;;;;;;;;10347864;28;20056;-69
2021/04/02 17:22:06;;;;;;;11.73;2.80;;;;;;;;;;10353019;28;20040;-65
2021/04/02 17:27:03;;;;;;;21.73;3.40;;;;;;;;;;10357445;28;20047;-67
2021/04/02 17:32:01;;;;;;;12.40;2.63;;;;;;;;;;10338870;28;20036;-67
2021/04/02 17:36:58;;;;;;;13.67;4.00;;;;;;;;;;10343622;28;20099;-66
2021/04/02 17:41:56;;;;;;;20.17;4.57;;;;;;;;;;10355917;28;20044;-66
2021/04/02 17:46:55;;;;;;;12.57;2.37;;;;;;;;;;10343694;28;20401;-66
2021/04/02 17:51:53;;;;;;;9.30;1.92;;;;;;;;;;10356735;28;20072;-66
2021/04/02 17:56:50;;;;;;;11.90;2.17;;;;;;;;;;10355773;28;20578;-66
2021/04/02 18:01:47;;;;;;;9.97;2.63;;;;;;;;;;10361302;28;20040;-66
2021/04/02 18:06:45;;;;;;;9.90;2.60;;;;;;;;;;10350037;28;20033;-66
2021/04/02 18:11:42;;;;;;;14.17;3.20;;;;;;;;;;10351526;28;20045;-66
2021/04/02 18:16:39;;;;;;;5.90;2.10;;;;;;;;;;10340621;28;20068;-65
2021/04/02 18:21:37;;;;;;;6.30;2.47;;;;;;;;;;10343585;28;20086;-66
2021/04/02 18:26:34;;;;;;;10.93;2.40;;;;;;;;;;10333799;28;20043;-66
2021/04/02 18:31:32;;;;;;;7.10;1.93;;;;;;;;;;10333210;28;20049;-66
2021/04/02 18:36:30;;;;;;;12.10;2.37;;;;;;;;;;10350832;28;20033;-66
2021/04/02 18:41:27;;;;;;;4.83;1.50;;;;;;;;;;10350308;28;20055;-65
2021/04/02 18:46:24;;;;;;;4.37;1.23;;;;;;;;;;10346655;28;20402;-65
2021/04/02 18:51:25;;;;;;;7.67;2.40;;;;;;;;;;10361446;28;20136;-65
2021/04/02 18:56:23;;;;;;;4.60;0.98;;;;;;;;;;10347635;28;20131;-65
2021/04/02 19:01:21;;;;;;;10.47;2.27;;;;;;;;;;10339130;28;20043;-66
2021/04/02 19:06:18;;;;;;;10.32;1.27;;;;;;;;;;10340533;28;20037;-65
2021/04/02 19:11:16;;;;;;;6.20;1.13;;;;;;;;;;10349116;28;20044;-66
2021/04/02 19:16:13;;;;;;;9.53;1.37;;;;;;;;;;10352114;28;20487;-66
2021/04/02 19:21:11;;;;;;;5.23;1.87;;;;;;;;;;10353983;28;20037;-66
2021/04/02 19:26:09;;;;;;;8.10;1.73;;;;;;;;;;10361412;28;20119;-66
2021/04/02 19:31:06;;;;;;;4.97;1.17;;;;;;;;;;10358927;28;20071;-65
2021/04/02 19:36:04;;;;;;;11.00;1.47;;;;;;;;;;10356179;28;20025;-66
2021/04/02 19:41:01;;;;;;;12.33;2.20;;;;;;;;;;10362401;28;20101;-65
2021/04/02 19:45:59;;;;;;;3.40;1.37;;;;;;;;;;10356930;28;20415;-65
2021/04/02 19:50:56;;;;;;;4.80;1.00;;;;;;;;;;10374308;28;20032;-64
2021/04/02 19:55:53;;;;;;;6.17;2.13;;;;;;;;;;10362871;28;20037;-65
2021/04/02 20:00:51;;;;;;;1.53;0.97;;;;;;;;;;10355330;28;20093;-68
2021/04/02 20:05:49;;;;;;;2.70;0.67;;;;;;;;;;10384228;28;20039;-66
2021/04/02 20:10:46;;;;;;;8.73;1.27;;;;;;;;;;10359533;28;20033;-66
2021/04/02 20:15:44;;;;;;;9.80;1.87;;;;;;;;;;10340091;28;20789;-65
2021/04/02 20:20:43;;;;;;;4.63;1.07;;;;;;;;;;10344417;28;20090;-66
2021/04/02 20:25:42;;;;;;;7.60;1.40;;;;;;;;;;10340821;28;20032;-67
2021/04/02 20:30:41;;;;;;;9.95;1.10;;;;;;;;;;10340004;28;20032;-66
2021/04/02 20:35:38;;;;;;;6.57;1.95;;;;;;;;;;10327474;28;20484;-65
2021/04/02 20:40:37;;;;;;;1.87;0.60;;;;;;;;;;10352479;28;20201;-65
2021/04/02 20:45:35;;;;;;;1.95;0.90;;;;;;;;;;10358344;28;20415;-66
2021/04/02 20:50:32;;;;;;;4.23;1.47;;;;;;;;;;10365707;28;20059;-65
2021/04/02 20:55:30;;;;;;;1.93;0.83;;;;;;;;;;10359850;28;20137;-66
2021/04/02 21:00:30;;;;;;;5.28;1.80;;;;;;;;;;10360356;28;20040;-67
2021/04/02 21:05:28;;;;;;;5.28;0.73;;;;;;;;;;10341231;28;20044;-65
2021/04/02 21:10:25;;;;;;;3.30;0.63;;;;;;;;;;10376623;28;20044;-65
2021/04/02 21:15:23;;;;;;;6.40;1.17;;;;;;;;;;10352372;28;20032;-66
2021/04/02 21:20:22;;;;;;;8.60;2.03;;;;;;;;;;10364965;28;20481;-65
2021/04/02 21:25:20;;;;;;;4.38;1.58;;;;;;;;;;10370551;28;20135;-66
2021/04/02 21:30:18;;;;;;;3.10;0.85;;;;;;;;;;10355608;28;20033;-65
2021/04/02 21:35:17;;;;;;;11.07;1.10;;;;;;;;;;10352793;28;21896;-65
2021/04/02 21:40:16;;;;;;;3.85;1.55;;;;;;;;;;10338260;28;20024;-67
2021/04/02 21:45:16;;;;;;;21.75;2.35;;;;;;;;;;10335216;28;20082;-66
2021/04/02 21:50:16;;;;;;;9.60;2.33;;;;;;;;;;10345752;28;20074;-67
2021/04/02 21:55:14;;;;;;;10.20;1.60;;;;;;;;;;10360044;28;20493;-66
2021/04/02 22:00:12;;;;;;;13.50;2.33;;;;;;;;;;10344002;28;20025;-66
2021/04/02 22:05:10;;;;;;;6.50;0.50;;;;;;;;;;10357653;28;20063;-64
2021/04/02 22:10:09;;;;;;;3.20;1.40;;;;;;;;;;10339389;28;20135;-65
2021/04/02 22:15:06;;;;;;;;;;;;;;;;;;10346888;28;20390;-66
2021/04/02 22:20:12;;;;;;;9.10;2.13;;;;;;;;;;10366173;28;19936;-65
2021/04/02 22:25:11;;;;;;;18.77;2.05;;;;;;;;;;10343476;28;20288;-66
2021/04/02 22:30:12;;;;;;;6.78;1.50;;;;;;;;;;10346515;28;20032;-66
2021/04/02 22:35:11;;;;;;;12.70;3.05;;;;;;;;;;10369140;28;20028;-65
2021/04/02 22:40:08;;;;;;;;;;;;;;;;;;10363572;28;20037;-66
2021/04/02 22:45:06;;;;;;;7.47;1.27;;;;;;;;;;10361583;28;20011;-66
2021/04/02 22:50:07;;;;;;;3.50;1.33;;;;;;;;;;10374427;28;20044;-65
2021/04/02 22:55:07;;;;;;;14.80;2.55;;;;;;;;;;10350906;28;20111;-65
2021/04/02 23:00:16;;;;;;;11.20;3.03;;;;;;;;;;10350306;28;20577;-66
2021/04/02 23:05:14;;;;;;;14.18;2.40;;;;;;;;;;10367057;28;20090;-65
2021/04/02 23:10:12;;;;;;;7.05;2.15;;;;;;;;;;10369603;28;20052;-66
2021/04/02 23:15:10;;;;;;;3.90;0.90;;;;;;;;;;10360302;28;20070;-66
2021/04/02 23:20:09;;;;;;;31.83;4.07;;;;;;;;;;10344321;28;20033;-66
2021/04/02 23:25:06;;;;;;;;;;;;;;;;;;10365955;28;20033;-66
2021/04/02 23:30:22;;;;;;;8.35;2.63;;;;;;;;;;10376554;28;19920;-66
2021/04/02 23:35:21;;;;;;;18.40;2.95;;;;;;;;;;10369098;28;20044;-67
2021/04/02 23:40:18;;;;;;;;;;;;;;;;;;10360499;28;20033;-66
2021/04/02 23:45:16;;;;;;;10.90;2.00;;;;;;;;;;10367915;28;21079;-65
2021/04/02 23:50:14;;;;;;;9.60;2.07;;;;;;;;;;10385887;28;20040;-65
2021/04/02 23:55:12;;;;;;;16.97;3.73;;;;;;;;;;10337083;28;20024;-64
